createdAt,value
2022-12-18T00:01:17.475Z,102511.00
2022-12-18T00:03:44.757Z,102514.38
2022-12-18T00:06:12.517Z,102516.50
2022-12-18T00:08:39.458Z,102520.72
2022-12-18T00:11:08.022Z,102515.34
2022-12-18T00:13:35.316Z,102520.13
2022-12-18T00:16:06.963Z,102519.94
2022-12-18T00:18:33.705Z,102521.59
2022-12-18T00:21:02.423Z,102524.13
2022-12-18T00:23:30.050Z,102525.75
2022-12-18T00:26:00.819Z,102525.00
2022-12-18T00:28:27.558Z,102525.63
2022-12-18T00:31:02.815Z,102527.66
2022-12-18T00:33:29.895Z,102533.97
2022-12-18T00:36:05.196Z,102544.63
2022-12-18T00:38:32.895Z,102539.66
2022-12-18T00:40:59.345Z,102545.47
2022-12-18T00:43:26.494Z,102543.25
2022-12-18T00:45:53.122Z,102531.13
2022-12-18T00:48:19.916Z,102525.94
2022-12-18T00:50:46.453Z,102536.41
2022-12-18T00:53:13.117Z,102530.28
2022-12-18T00:55:43.921Z,102531.31
2022-12-18T00:58:12.118Z,102527.34
2022-12-18T01:00:39.301Z,102532.16
2022-12-18T01:03:06.339Z,102530.69
2022-12-18T01:05:33.660Z,102532.63
2022-12-18T01:08:00.415Z,102522.69
2022-12-18T01:10:28.145Z,102523.50
2022-12-18T01:12:57.806Z,102520.34
2022-12-18T01:15:24.236Z,102517.41
2022-12-18T01:17:53.172Z,102527.41
2022-12-18T01:20:20.051Z,102519.59
2022-12-18T01:22:46.497Z,102512.47
2022-12-18T01:25:12.914Z,102516.97
2022-12-18T01:27:39.369Z,102509.81
2022-12-18T01:30:06.373Z,102518.16
2022-12-18T01:32:33.466Z,102524.38
2022-12-18T01:35:00.115Z,102532.38
2022-12-18T01:37:28.391Z,102537.03
2022-12-18T01:39:55.737Z,102540.06
2022-12-18T01:42:22.856Z,102544.63
2022-12-18T01:44:57.986Z,102548.00
2022-12-18T01:47:35.826Z,102551.75
2022-12-18T01:50:31.708Z,102546.38
2022-12-18T01:53:07.375Z,102553.13
2022-12-18T01:55:45.791Z,102554.00
2022-12-18T01:58:12.300Z,102554.63
2022-12-18T02:00:38.878Z,102545.44
2022-12-18T02:03:05.363Z,102555.16
2022-12-18T02:05:46.846Z,102560.09
2022-12-18T02:08:34.920Z,102557.47
2022-12-18T02:11:11.774Z,102556.09
2022-12-18T02:13:51.770Z,102552.84
2022-12-18T02:16:34.972Z,102550.94
2022-12-18T02:19:16.698Z,102545.66
2022-12-18T02:21:56.867Z,102549.22
2022-12-18T02:24:43.975Z,102554.69
2022-12-18T02:27:11.611Z,102550.59
2022-12-18T02:29:45.061Z,102544.25
2022-12-18T02:32:17.676Z,102545.66
2022-12-18T02:34:46.961Z,102543.44
2022-12-18T02:37:18.930Z,102536.69
2022-12-18T02:39:49.717Z,102530.78
2022-12-18T02:42:18.506Z,102528.78
2022-12-18T02:44:50.975Z,102517.72
2022-12-18T02:47:23.473Z,102518.88
2022-12-18T02:49:59.140Z,102517.63
2022-12-18T02:52:45.754Z,102517.81
2022-12-18T02:55:33.616Z,102531.84
2022-12-18T02:58:13.763Z,102529.81
2022-12-18T03:00:49.597Z,102544.44
2022-12-18T03:03:29.294Z,102541.19
2022-12-18T03:06:11.147Z,102532.75
2022-12-18T03:08:42.859Z,102528.84
2022-12-18T03:11:12.575Z,102520.94
2022-12-18T03:13:54.804Z,102524.06
2022-12-18T03:16:29.319Z,102519.97
2022-12-18T03:19:01.082Z,102518.25
2022-12-18T03:21:35.692Z,102517.84
2022-12-18T03:24:06.855Z,102525.56
2022-12-18T03:26:38.449Z,102528.69
2022-12-18T03:29:14.005Z,102540.88
2022-12-18T03:31:44.176Z,102536.88
2022-12-18T03:34:16.226Z,102543.81
2022-12-18T03:36:46.230Z,102537.59
2022-12-18T03:39:15.156Z,102535.31
2022-12-18T03:42:02.721Z,102528.31
2022-12-18T03:44:38.101Z,102542.22
2022-12-18T03:47:15.589Z,102543.56
2022-12-18T03:49:48.954Z,102543.03
2022-12-18T03:52:35.874Z,102540.06
2022-12-18T03:55:04.207Z,102535.72
2022-12-18T03:57:33.406Z,102536.56
2022-12-18T04:00:07.819Z,102530.34
2022-12-18T04:02:55.159Z,102533.94
2022-12-18T04:05:30.706Z,102530.16
2022-12-18T04:07:58.619Z,102536.06
2022-12-18T04:10:25.330Z,102542.06
2022-12-18T04:12:51.882Z,102528.50
2022-12-18T04:15:19.445Z,102530.53
2022-12-18T04:17:50.551Z,102529.06
2022-12-18T04:20:20.766Z,102531.81
2022-12-18T04:22:48.119Z,102537.69
2022-12-18T04:25:14.995Z,102539.69
2022-12-18T04:27:53.558Z,102535.28
2022-12-18T04:30:19.999Z,102536.94
2022-12-18T04:32:52.042Z,102539.63
2022-12-18T04:35:19.726Z,102551.19
2022-12-18T04:37:46.892Z,102555.94
2022-12-18T04:40:13.457Z,102547.69
2022-12-18T04:42:43.464Z,102538.16
2022-12-18T04:45:10.260Z,102536.56
2022-12-18T04:47:36.765Z,102524.97
2022-12-18T04:50:03.567Z,102524.25
2022-12-18T04:52:30.208Z,102530.25
2022-12-18T04:54:56.648Z,102523.28
2022-12-18T04:57:23.124Z,102531.00
2022-12-18T04:59:49.637Z,102526.34
2022-12-18T05:02:16.241Z,102528.34
2022-12-18T05:04:42.735Z,102527.97
2022-12-18T05:07:09.141Z,102529.56
2022-12-18T05:09:36.248Z,102538.00
2022-12-18T05:12:02.893Z,102530.09
2022-12-18T05:14:30.300Z,102543.91
2022-12-18T05:17:00.637Z,102529.03
2022-12-18T05:19:27.723Z,102544.84
2022-12-18T05:21:54.116Z,102548.31
2022-12-18T05:24:20.745Z,102542.50
2022-12-18T05:26:47.434Z,102545.66
2022-12-18T05:29:14.144Z,102554.31
2022-12-18T05:31:40.950Z,102547.78
2022-12-18T05:34:09.460Z,102553.72
2022-12-18T05:36:37.141Z,102553.16
2022-12-18T05:39:04.086Z,102561.72
2022-12-18T05:41:30.887Z,102568.84
2022-12-18T05:43:57.660Z,102560.59
2022-12-18T05:46:25.243Z,102571.13
2022-12-18T05:48:52.029Z,102578.38
2022-12-18T05:51:22.002Z,102571.78
2022-12-18T05:53:49.129Z,102577.38
2022-12-18T05:56:21.445Z,102560.69
2022-12-18T05:58:48.313Z,102561.44
2022-12-18T06:01:20.086Z,102561.16
2022-12-18T06:03:47.262Z,102561.91
2022-12-18T06:06:19.877Z,102560.31
2022-12-18T06:08:47.265Z,102563.47
2022-12-18T06:11:14.392Z,102560.56
2022-12-18T06:13:41.226Z,102562.84
2022-12-18T06:16:09.105Z,102569.16
2022-12-18T06:18:35.680Z,102571.88
2022-12-18T06:21:04.291Z,102565.97
2022-12-18T06:23:30.965Z,102568.34
2022-12-18T06:25:57.718Z,102568.66
2022-12-18T06:28:24.206Z,102565.31
2022-12-18T06:30:51.323Z,102564.50
2022-12-18T06:33:18.251Z,102565.97
2022-12-18T06:35:44.860Z,102571.66
2022-12-18T06:38:11.321Z,102576.66
2022-12-18T06:40:39.455Z,102580.69
2022-12-18T06:43:06.833Z,102571.00
2022-12-18T06:45:33.281Z,102578.72
2022-12-18T06:47:59.799Z,102581.44
2022-12-18T06:50:26.438Z,102582.38
2022-12-18T06:52:52.966Z,102588.47
2022-12-18T06:55:19.657Z,102590.66
2022-12-18T06:57:46.101Z,102601.72
2022-12-18T07:00:12.949Z,102597.25
2022-12-18T07:02:39.504Z,102597.44
2022-12-18T07:05:10.647Z,102597.91
2022-12-18T07:07:37.775Z,102600.25
2022-12-18T07:10:04.833Z,102606.16
2022-12-18T07:12:31.326Z,102609.75
2022-12-18T07:14:57.900Z,102609.16
2022-12-18T07:17:24.348Z,102615.03
2022-12-18T07:19:50.910Z,102614.72
2022-12-18T07:22:17.535Z,102620.94
2022-12-18T07:24:44.188Z,102626.09
2022-12-18T07:27:10.641Z,102622.59
2022-12-18T07:29:37.101Z,102624.03
2022-12-18T07:32:04.729Z,102623.16
2022-12-18T07:34:31.211Z,102629.38
2022-12-18T07:36:58.835Z,102629.22
2022-12-18T07:39:25.392Z,102633.50
2022-12-18T07:42:10.627Z,102627.31
2022-12-18T07:44:40.192Z,102623.25
2022-12-18T07:47:11.768Z,102625.25
2022-12-18T07:49:38.951Z,102624.31
2022-12-18T07:52:05.514Z,102620.25
2022-12-18T07:54:32.039Z,102612.94
2022-12-18T07:56:58.558Z,102611.06
2022-12-18T07:59:25.012Z,102603.34
2022-12-18T08:01:51.672Z,102597.75
2022-12-18T08:04:18.666Z,102605.88
2022-12-18T08:06:47.905Z,102611.78
2022-12-18T08:09:15.021Z,102613.69
2022-12-18T08:11:41.440Z,102613.03
2022-12-18T08:14:07.924Z,102613.69
2022-12-18T08:16:34.588Z,102617.34
2022-12-18T08:19:01.903Z,102609.44
2022-12-18T08:21:31.328Z,102616.41
2022-12-18T08:24:00.791Z,102601.34
2022-12-18T08:26:30.741Z,102590.13
2022-12-18T08:28:58.973Z,102595.72
2022-12-18T08:31:27.975Z,102590.81
2022-12-18T08:33:55.554Z,102600.38
2022-12-18T08:36:22.967Z,102595.63
2022-12-18T08:38:49.745Z,102588.94
2022-12-18T08:41:18.145Z,102589.50
2022-12-18T08:44:03.819Z,102583.09
2022-12-18T08:46:38.824Z,102593.25
2022-12-18T08:49:07.348Z,102577.97
2022-12-18T08:51:34.720Z,102581.50
2022-12-18T08:54:02.012Z,102583.22
2022-12-18T08:56:30.827Z,102579.03
2022-12-18T08:58:57.859Z,102574.16
2022-12-18T09:01:25.249Z,102569.69
2022-12-18T09:03:52.265Z,102570.41
2022-12-18T09:06:20.653Z,102574.13
2022-12-18T09:08:47.954Z,102570.06
2022-12-18T09:11:19.658Z,102563.91
2022-12-18T09:13:46.159Z,102554.91
2022-12-18T09:16:12.675Z,102553.03
2022-12-18T09:18:39.533Z,102554.22
2022-12-18T09:21:17.465Z,102544.09
2022-12-18T09:23:44.507Z,102536.06
2022-12-18T09:26:11.171Z,102536.41
2022-12-18T09:28:37.984Z,102533.28
2022-12-18T09:31:08.478Z,102549.91
2022-12-18T09:33:38.296Z,102537.50
2022-12-18T09:36:07.538Z,102539.53
2022-12-18T09:38:34.869Z,102538.06
2022-12-18T09:41:17.864Z,102550.75
2022-12-18T09:43:52.359Z,102558.81
2022-12-18T09:46:30.333Z,102563.16
2022-12-18T09:49:02.149Z,102576.28
2022-12-18T09:51:33.894Z,102569.75
2022-12-18T09:54:05.551Z,102574.91
2022-12-18T09:56:37.954Z,102556.56
2022-12-18T09:59:05.580Z,102562.69
2022-12-18T10:01:41.754Z,102561.47
2022-12-18T10:04:11.091Z,102575.47
2022-12-18T10:06:58.160Z,102576.66
2022-12-18T10:09:58.377Z,102573.66
2022-12-18T10:12:44.368Z,102577.50
2022-12-18T10:15:32.917Z,102574.88
2022-12-18T10:18:17.396Z,102559.03
2022-12-18T10:20:53.233Z,102553.91
2022-12-18T10:23:28.061Z,102553.34
2022-12-18T10:26:05.016Z,102552.94
2022-12-18T10:28:34.107Z,102554.50
2022-12-18T10:31:00.894Z,102553.31
2022-12-18T10:33:33.755Z,102540.88
2022-12-18T10:36:02.536Z,102539.06
2022-12-18T10:38:31.436Z,102545.34
2022-12-18T10:41:00.679Z,102555.00
2022-12-18T10:43:33.235Z,102546.75
2022-12-18T10:46:12.782Z,102540.19
2022-12-18T10:48:50.081Z,102540.19
2022-12-18T10:51:38.214Z,102527.16
2022-12-18T10:54:07.640Z,102523.34
2022-12-18T10:56:37.900Z,102517.59
2022-12-18T10:59:09.566Z,102524.78
2022-12-18T11:01:58.355Z,102515.19
2022-12-18T11:04:30.763Z,102504.66
2022-12-18T11:07:05.456Z,102517.25
2022-12-18T11:09:34.936Z,102517.84
2022-12-18T11:12:16.974Z,102513.47
2022-12-18T11:14:48.305Z,102518.34
2022-12-18T11:17:34.412Z,102519.63
2022-12-18T11:20:04.252Z,102512.88
2022-12-18T11:22:34.276Z,102514.13
2022-12-18T11:25:32.654Z,102508.81
2022-12-18T11:28:02.579Z,102513.72
2022-12-18T11:30:34.862Z,102499.94
2022-12-18T11:33:04.764Z,102490.13
2022-12-18T11:35:48.615Z,102485.00
2022-12-18T11:38:21.022Z,102478.38
2022-12-18T11:40:54.200Z,102475.03
2022-12-18T11:43:30.868Z,102473.13
2022-12-18T11:46:05.384Z,102468.72
2022-12-18T11:48:39.094Z,102454.63
2022-12-18T11:51:14.441Z,102454.03
2022-12-18T11:53:40.972Z,102441.31
2022-12-18T11:56:42.517Z,102444.97
2022-12-18T11:59:34.127Z,102452.81
2022-12-18T12:02:20.832Z,102447.78
2022-12-18T12:05:18.071Z,102445.69
2022-12-18T12:08:01.999Z,102435.31
2022-12-18T12:10:37.782Z,102448.25
2022-12-18T12:13:31.690Z,102439.78
2022-12-18T12:16:19.935Z,102441.53
2022-12-18T12:19:00.904Z,102442.06
2022-12-18T12:21:35.528Z,102434.59
2022-12-18T12:24:05.002Z,102434.16
2022-12-18T12:26:44.636Z,102429.88
2022-12-18T12:29:33.682Z,102426.16
2022-12-18T12:32:14.048Z,102415.16
2022-12-18T12:35:01.011Z,102408.41
2022-12-18T12:37:46.312Z,102394.00
2022-12-18T12:40:50.225Z,102388.44
2022-12-18T12:43:21.239Z,102389.06
2022-12-18T12:45:55.802Z,102392.19
2022-12-18T12:48:48.841Z,102388.81
2022-12-18T12:51:33.130Z,102390.88
2022-12-18T12:54:01.100Z,102382.28
2022-12-18T12:56:59.854Z,102390.59
2022-12-18T12:59:32.008Z,102384.25
2022-12-18T13:02:09.963Z,102384.09
2022-12-18T13:04:47.760Z,102379.69
2022-12-18T13:07:28.847Z,102382.13
2022-12-18T13:10:25.637Z,102391.50
2022-12-18T13:12:57.313Z,102391.88
2022-12-18T13:15:44.190Z,102392.38
2022-12-18T13:18:10.660Z,102391.03
2022-12-18T13:20:52.488Z,102382.22
2022-12-18T13:23:51.435Z,102386.75
2022-12-18T13:45:39.713Z,102357.72
2022-12-18T13:48:17.382Z,102350.94
2022-12-18T13:50:48.910Z,102355.19
2022-12-18T13:53:30.555Z,102345.75
2022-12-18T13:55:58.278Z,102338.06
2022-12-18T13:58:24.744Z,102335.75
2022-12-18T14:00:51.182Z,102329.75
2022-12-18T14:03:22.487Z,102324.41
2022-12-18T14:06:08.647Z,102325.03
2022-12-18T14:08:40.673Z,102326.41
2022-12-18T14:11:11.762Z,102319.84
2022-12-18T14:13:42.215Z,102305.84
2022-12-18T14:16:15.118Z,102297.63
2022-12-18T14:19:08.637Z,102297.63
2022-12-18T14:21:47.490Z,102285.91
2022-12-18T14:24:21.012Z,102290.22
2022-12-18T14:26:50.536Z,102288.56
2022-12-18T14:29:21.563Z,102277.91
2022-12-18T14:32:06.961Z,102286.22
2022-12-18T14:34:34.832Z,102284.47
2022-12-18T14:37:01.319Z,102278.31
2022-12-18T14:39:28.030Z,102284.69
2022-12-18T14:41:54.678Z,102285.25
2022-12-18T14:44:22.367Z,102288.16
2022-12-18T14:46:51.523Z,102283.88
2022-12-18T14:49:30.707Z,102273.28
2022-12-18T14:52:02.410Z,102282.38
2022-12-18T14:54:30.726Z,102283.66
2022-12-18T14:57:22.211Z,102283.19
2022-12-18T14:59:48.783Z,102275.06
2022-12-18T15:02:20.025Z,102272.91
2022-12-18T15:04:47.049Z,102269.63
2022-12-18T15:07:24.652Z,102278.78
2022-12-18T15:10:09.868Z,102267.78
2022-12-18T15:12:44.995Z,102258.63
2022-12-18T15:15:43.291Z,102257.63
2022-12-18T15:18:09.720Z,102262.50
2022-12-18T15:21:10.088Z,102260.28
2022-12-18T15:23:44.796Z,102253.66
2022-12-18T15:26:15.414Z,102256.78
2022-12-18T15:28:56.510Z,102262.94
2022-12-18T15:31:35.956Z,102256.94
2022-12-18T15:34:08.433Z,102248.19
2022-12-18T15:36:37.349Z,102238.59
2022-12-18T15:39:06.557Z,102243.72
2022-12-18T15:41:36.082Z,102232.91
2022-12-18T15:44:04.080Z,102226.72
2022-12-18T15:46:31.799Z,102230.31
2022-12-18T15:49:02.177Z,102213.09
2022-12-18T15:51:34.760Z,102213.03
2022-12-18T15:54:07.227Z,102182.59
2022-12-18T15:56:52.523Z,102205.94
2022-12-18T15:59:21.317Z,102196.28
2022-12-18T16:01:50.242Z,102201.31
2022-12-18T16:04:21.198Z,102187.28
2022-12-18T16:07:13.839Z,102195.50
2022-12-18T16:09:35.481Z,102184.84
2022-12-18T16:12:03.399Z,102185.72
2022-12-18T16:14:31.175Z,102191.19
2022-12-18T16:17:03.293Z,102185.41
2022-12-18T16:19:30.640Z,102179.59
2022-12-18T16:21:59.794Z,102181.06
2022-12-18T16:24:29.384Z,102173.66
2022-12-18T16:26:59.720Z,102163.38
2022-12-18T16:29:28.604Z,102157.91
2022-12-18T16:31:57.208Z,102146.94
2022-12-18T16:34:29.701Z,102151.22
2022-12-18T16:37:05.513Z,102133.16
2022-12-18T16:39:34.822Z,102154.41
2022-12-18T16:42:06.030Z,102128.81
2022-12-18T16:44:34.394Z,102126.34
2022-12-18T16:47:02.888Z,102128.59
2022-12-18T16:49:30.191Z,102122.44
2022-12-18T16:51:56.914Z,102105.69
2022-12-18T16:54:23.901Z,102113.28
2022-12-18T16:56:52.069Z,102117.69
2022-12-18T16:59:18.988Z,102111.88
2022-12-18T17:01:47.114Z,102108.38
2022-12-18T17:04:14.616Z,102116.53
2022-12-18T17:06:43.478Z,102109.59
2022-12-18T17:09:17.889Z,102111.41
2022-12-18T17:11:44.451Z,102116.00
2022-12-18T17:14:14.908Z,102092.88
2022-12-18T17:16:41.613Z,102101.06
2022-12-18T17:19:15.179Z,102103.59
2022-12-18T17:21:45.135Z,102108.91
2022-12-18T17:24:11.891Z,102102.88
2022-12-18T17:26:38.336Z,102102.09
2022-12-18T17:29:05.268Z,102087.03
2022-12-18T17:31:32.453Z,102089.72
2022-12-18T17:33:59.424Z,102072.06
2022-12-18T17:36:28.976Z,102086.28
2022-12-18T17:38:57.407Z,102104.06
2022-12-18T17:41:24.825Z,102114.59
2022-12-18T17:44:03.542Z,102098.56
2022-12-18T17:46:32.179Z,102104.78
2022-12-18T17:49:00.386Z,102098.63
2022-12-18T17:51:27.469Z,102093.25
2022-12-18T17:53:54.211Z,102096.41
2022-12-18T17:56:22.686Z,102085.69
2022-12-18T17:58:50.336Z,102063.66
2022-12-18T18:01:21.046Z,102070.06
2022-12-18T18:03:49.195Z,102077.13
2022-12-18T18:06:21.036Z,102062.00
2022-12-18T18:08:47.993Z,102049.22
2022-12-18T18:11:36.363Z,102036.69
2022-12-18T18:14:06.303Z,102034.06
2022-12-18T18:16:36.867Z,102027.91
2022-12-18T18:19:06.749Z,102027.47
2022-12-18T18:21:34.168Z,102032.38
2022-12-18T18:24:03.086Z,102015.72
2022-12-18T18:26:35.015Z,102011.09
2022-12-18T18:29:03.959Z,102005.00
2022-12-18T18:31:35.280Z,101998.75
2022-12-18T18:34:07.213Z,102010.38
2022-12-18T18:36:34.661Z,102005.38
2022-12-18T18:39:03.666Z,102002.22
2022-12-18T18:41:30.653Z,101999.91
2022-12-18T18:43:58.443Z,101985.25
2022-12-18T18:46:25.130Z,101994.41
2022-12-18T18:48:51.712Z,101980.56
2022-12-18T18:51:21.090Z,101972.44
2022-12-18T18:53:49.643Z,101973.94
2022-12-18T18:56:45.404Z,101968.06
2022-12-18T18:59:05.815Z,101967.38
2022-12-18T19:01:32.932Z,101973.22
2022-12-18T19:04:00.616Z,101972.72
2022-12-18T19:06:28.583Z,101963.06
2022-12-18T19:08:57.259Z,101956.91
2022-12-18T19:11:44.548Z,101965.41
2022-12-18T19:14:14.672Z,101948.91
2022-12-18T19:16:41.729Z,101961.84
2022-12-18T19:19:09.253Z,101954.94
2022-12-18T19:21:37.579Z,101963.44
2022-12-18T19:24:05.060Z,101968.59
2022-12-18T19:26:31.632Z,101970.56
2022-12-18T19:29:05.720Z,101968.25
2022-12-18T19:31:36.521Z,101960.44
2022-12-18T19:34:05.239Z,101950.44
2022-12-18T19:36:33.828Z,101952.25
2022-12-18T19:39:02.659Z,101952.63
2022-12-18T19:41:31.329Z,101955.09
2022-12-18T19:43:59.657Z,101959.59
2022-12-18T19:46:26.318Z,101957.09
2022-12-18T19:48:52.871Z,101966.63
2022-12-18T19:51:25.045Z,101948.44
2022-12-18T19:53:58.180Z,101944.59
2022-12-18T19:56:28.800Z,101936.59
2022-12-18T19:58:55.492Z,101923.44
2022-12-18T20:01:24.030Z,101894.91
2022-12-18T20:03:51.710Z,101885.25
2022-12-18T20:06:29.586Z,101878.91
2022-12-18T20:09:00.325Z,101915.91
2022-12-18T20:11:30.683Z,101918.94
2022-12-18T20:13:57.706Z,101940.94
2022-12-18T20:16:27.637Z,101945.13
2022-12-18T20:18:55.301Z,101931.94
2022-12-18T20:21:22.955Z,101915.59
2022-12-18T20:23:50.293Z,101908.28
2022-12-18T20:26:16.818Z,101919.72
2022-12-18T20:28:43.287Z,101932.25
2022-12-18T20:31:13.808Z,101942.75
2022-12-18T20:33:42.248Z,101949.75
2022-12-18T20:36:14.452Z,101936.25
2022-12-18T20:38:42.400Z,101934.44
2022-12-18T20:41:16.530Z,101937.47
2022-12-18T20:43:44.323Z,101932.31
2022-12-18T20:46:13.508Z,101933.28
2022-12-18T20:48:40.345Z,101930.28
2022-12-18T20:51:12.574Z,101922.78
2022-12-18T20:53:40.262Z,101920.28
2022-12-18T20:56:21.032Z,101918.97
2022-12-18T20:58:51.774Z,101913.47
2022-12-18T21:01:23.506Z,101926.28
2022-12-18T21:03:50.819Z,101927.44
2022-12-18T21:06:19.349Z,101932.94
2022-12-18T21:08:46.722Z,101947.63
2022-12-18T21:11:37.880Z,101933.78
2022-12-18T21:14:11.654Z,101916.88
2022-12-18T21:16:40.058Z,101944.94
2022-12-18T21:19:07.243Z,101937.75
2022-12-18T21:21:38.405Z,101938.59
2022-12-18T21:24:06.090Z,101952.94
2022-12-18T21:26:33.044Z,101950.25
2022-12-18T21:29:02.621Z,101941.75
2022-12-18T21:31:32.213Z,101917.03
2022-12-18T21:34:02.044Z,101914.19
2022-12-18T21:36:29.436Z,101920.06
2022-12-18T21:38:56.815Z,101919.75
2022-12-18T21:41:56.175Z,101920.22
2022-12-18T21:44:23.742Z,101930.78
2022-12-18T21:46:56.157Z,101927.94
2022-12-18T21:49:26.449Z,101920.59
2022-12-18T21:51:55.345Z,101923.41
2022-12-18T21:54:22.645Z,101920.56
2022-12-18T21:56:49.084Z,101912.56
2022-12-18T21:59:18.501Z,101922.06
2022-12-18T22:01:45.780Z,101914.59
2022-12-18T22:04:12.929Z,101903.72
2022-12-18T22:06:39.935Z,101897.00
2022-12-18T22:09:06.761Z,101892.34
2022-12-18T22:11:33.238Z,101880.19
2022-12-18T22:13:59.868Z,101876.81
2022-12-18T22:16:26.426Z,101862.63
2022-12-18T22:18:52.973Z,101858.59
2022-12-18T22:21:31.371Z,101852.34
2022-12-18T22:24:06.398Z,101875.09
2022-12-18T22:26:39.843Z,101875.78
2022-12-18T22:29:25.940Z,101873.94
2022-12-18T22:31:52.528Z,101870.44
2022-12-18T22:34:22.761Z,101861.97
2022-12-18T22:36:50.455Z,101866.44
2022-12-18T22:39:18.280Z,101854.28
2022-12-18T22:41:45.047Z,101858.44
2022-12-18T22:44:11.511Z,101851.44
2022-12-18T22:46:49.412Z,101852.56
2022-12-18T22:49:24.507Z,101852.53
2022-12-18T22:51:51.903Z,101854.50
2022-12-18T22:54:18.484Z,101854.69
2022-12-18T22:56:45.069Z,101847.50
2022-12-18T22:59:17.464Z,101840.16
2022-12-18T23:01:45.335Z,101838.00
2022-12-18T23:04:14.182Z,101845.16
2022-12-18T23:06:42.033Z,101837.31
2022-12-18T23:09:20.177Z,101826.50
2022-12-18T23:11:47.380Z,101834.50
2022-12-18T23:14:14.684Z,101827.19
2022-12-18T23:16:41.146Z,101829.84
2022-12-18T23:19:08.936Z,101833.00
2022-12-18T23:21:35.410Z,101826.47
2022-12-18T23:24:02.183Z,101822.31
2022-12-18T23:26:29.264Z,101812.16
2022-12-18T23:28:56.723Z,101819.16
2022-12-18T23:31:26.399Z,101802.97
2022-12-18T23:33:55.222Z,101807.47
2022-12-18T23:36:22.718Z,101802.75
2022-12-18T23:38:51.008Z,101805.41
2022-12-18T23:41:19.247Z,101807.47
2022-12-18T23:43:46.271Z,101801.13
2022-12-18T23:46:34.651Z,101792.03
2022-12-18T23:49:02.906Z,101794.53
2022-12-18T23:51:32.483Z,101788.06
2022-12-18T23:54:02.030Z,101787.88
2022-12-18T23:56:30.259Z,101788.88
2022-12-18T23:58:57.184Z,101796.25
